createdAt,value
2023-05-08T00:00:31.107Z,100773.09
2023-05-08T00:02:58.239Z,100773.11
2023-05-08T00:05:27.139Z,100774.74
2023-05-08T00:08:00.746Z,100775.23
2023-05-08T00:10:33.682Z,100776.96
2023-05-08T00:13:00.460Z,100773.84
2023-05-08T00:15:27.519Z,100779.19
2023-05-08T00:17:55.228Z,100776.92
2023-05-08T00:20:22.697Z,100777.20
2023-05-08T00:22:49.760Z,100780.05
2023-05-08T00:25:16.648Z,100782.39
2023-05-08T00:27:43.497Z,100790.39
2023-05-08T00:30:11.502Z,100790.60
2023-05-08T00:32:39.270Z,100788.05
2023-05-08T00:35:06.469Z,100794.93
2023-05-08T00:37:33.246Z,100793.83
2023-05-08T00:40:00.726Z,100792.55
2023-05-08T00:42:27.581Z,100795.11
2023-05-08T00:44:54.484Z,100794.20
2023-05-08T00:47:27.552Z,100794.98
2023-05-08T00:49:54.462Z,100791.75
2023-05-08T00:52:21.588Z,100793.73
2023-05-08T00:54:48.436Z,100789.55
2023-05-08T00:57:20.337Z,100791.61
2023-05-08T00:59:48.706Z,100789.08
2023-05-08T01:02:16.060Z,100786.39
2023-05-08T01:04:46.442Z,100787.88
2023-05-08T01:07:14.429Z,100782.55
2023-05-08T01:09:41.338Z,100782.20
2023-05-08T01:12:08.500Z,100783.45
2023-05-08T01:14:59.704Z,100785.16
2023-05-08T01:17:42.024Z,100785.34
2023-05-08T01:20:34.372Z,100781.91
2023-05-08T01:23:29.053Z,100773.34
2023-05-08T01:26:14.448Z,100773.08
2023-05-08T01:29:03.658Z,100767.92
2023-05-08T01:31:48.017Z,100765.64
2023-05-08T01:34:16.877Z,100770.34
2023-05-08T01:36:46.749Z,100773.11
2023-05-08T01:39:19.087Z,100779.05
2023-05-08T01:41:50.707Z,100784.02
2023-05-08T01:44:19.986Z,100786.13
2023-05-08T01:46:50.120Z,100784.16
2023-05-08T01:49:27.314Z,100786.95
2023-05-08T01:52:02.576Z,100788.29
2023-05-08T01:54:33.551Z,100792.89
2023-05-08T01:57:00.634Z,100789.62
2023-05-08T01:59:27.787Z,100794.02
2023-05-08T02:01:56.581Z,100795.44
2023-05-08T02:04:23.561Z,100797.86
2023-05-08T02:06:53.598Z,100802.48
2023-05-08T02:09:21.023Z,100800.09
2023-05-08T02:11:48.469Z,100802.65
2023-05-08T02:14:19.307Z,100798.98
2023-05-08T02:16:53.359Z,100802.59
2023-05-08T02:19:21.588Z,100805.25
2023-05-08T02:21:48.355Z,100809.17
2023-05-08T02:24:15.190Z,100805.70
2023-05-08T02:26:42.362Z,100805.14
2023-05-08T02:29:09.183Z,100803.31
2023-05-08T02:31:37.020Z,100801.52
2023-05-08T02:34:03.932Z,100805.17
2023-05-08T02:36:30.948Z,100803.40
2023-05-08T02:38:58.547Z,100806.42
2023-05-08T02:41:28.795Z,100809.87
2023-05-08T02:43:55.661Z,100807.90
2023-05-08T02:46:32.902Z,100808.83
2023-05-08T02:49:03.228Z,100807.05
2023-05-08T02:51:35.260Z,100804.75
2023-05-08T02:54:08.081Z,100804.64
2023-05-08T02:56:43.332Z,100806.12
2023-05-08T02:59:16.436Z,100804.81
2023-05-08T03:01:52.225Z,100809.42
2023-05-08T03:04:24.615Z,100805.23
2023-05-08T03:06:51.731Z,100800.55
2023-05-08T03:09:19.752Z,100802.95
2023-05-08T03:11:48.974Z,100801.60
2023-05-08T03:14:17.802Z,100800.48
2023-05-08T03:16:45.370Z,100801.81
2023-05-08T03:19:33.676Z,100804.45
2023-05-08T03:22:05.755Z,100807.02
2023-05-08T03:24:36.311Z,100812.28
2023-05-08T03:27:03.351Z,100813.38
2023-05-08T03:29:30.696Z,100806.69
2023-05-08T03:31:58.308Z,100808.57
2023-05-08T03:34:25.268Z,100807.27
2023-05-08T03:36:52.115Z,100808.62
2023-05-08T03:39:19.209Z,100807.73
2023-05-08T03:41:47.398Z,100808.59
2023-05-08T03:44:15.031Z,100804.33
2023-05-08T03:46:47.302Z,100812.95
2023-05-08T03:49:14.277Z,100810.54
2023-05-08T03:51:41.580Z,100812.28
2023-05-08T03:54:13.466Z,100816.21
2023-05-08T03:56:40.402Z,100817.88
2023-05-08T03:59:10.010Z,100814.94
2023-05-08T04:01:41.495Z,100816.38
2023-05-08T04:04:16.465Z,100817.95
2023-05-08T04:06:51.080Z,100817.38
2023-05-08T04:09:50.570Z,100815.84
2023-05-08T04:12:38.489Z,100814.44
2023-05-08T04:15:14.306Z,100814.69
2023-05-08T04:17:45.122Z,100814.02
2023-05-08T04:20:16.025Z,100810.81
2023-05-08T04:22:43.289Z,100813.83
2023-05-08T04:25:10.522Z,100807.88
2023-05-08T04:27:37.865Z,100811.67
2023-05-08T04:30:05.867Z,100808.89
2023-05-08T04:32:34.646Z,100804.79
2023-05-08T04:35:01.764Z,100807.42
2023-05-08T04:37:31.321Z,100807.81
2023-05-08T04:39:59.908Z,100809.60
2023-05-08T04:42:27.164Z,100807.79
2023-05-08T04:44:55.259Z,100805.35
2023-05-08T04:47:23.521Z,100804.36
2023-05-08T04:49:50.799Z,100806.83
2023-05-08T04:52:17.777Z,100811.41
2023-05-08T04:54:44.716Z,100810.06
2023-05-08T04:57:11.549Z,100810.14
2023-05-08T04:59:38.597Z,100810.01
2023-05-08T05:02:07.738Z,100814.70
2023-05-08T05:04:36.188Z,100813.59
2023-05-08T05:07:03.461Z,100818.08
2023-05-08T05:09:30.287Z,100820.22
2023-05-08T05:11:58.314Z,100816.73
2023-05-08T05:14:25.453Z,100818.84
2023-05-08T05:16:52.286Z,100814.61
2023-05-08T05:19:19.429Z,100812.55
2023-05-08T05:21:46.273Z,100820.39
2023-05-08T05:24:13.270Z,100819.78
2023-05-08T05:26:40.834Z,100821.91
2023-05-08T05:29:07.844Z,100817.11
2023-05-08T05:31:34.843Z,100817.34
2023-05-08T05:34:01.668Z,100816.56
2023-05-08T05:36:29.132Z,100816.42
2023-05-08T05:38:55.889Z,100815.17
2023-05-08T05:41:23.758Z,100812.18
2023-05-08T05:43:50.568Z,100814.65
2023-05-08T05:46:18.165Z,100812.20
2023-05-08T05:48:45.385Z,100811.84
2023-05-08T05:51:13.089Z,100812.44
2023-05-08T05:53:39.994Z,100811.81
2023-05-08T05:56:07.567Z,100813.58
2023-05-08T05:58:34.927Z,100815.48
2023-05-08T06:01:01.769Z,100818.41
2023-05-08T06:03:30.208Z,100815.91
2023-05-08T06:05:57.636Z,100814.06
2023-05-08T06:08:26.775Z,100816.63
2023-05-08T06:10:56.309Z,100817.59
2023-05-08T06:13:23.933Z,100822.90
2023-05-08T06:15:51.065Z,100826.10
2023-05-08T06:18:19.221Z,100826.86
2023-05-08T06:20:46.042Z,100829.13
2023-05-08T06:23:13.817Z,100833.23
2023-05-08T06:25:45.791Z,100837.26
2023-05-08T06:28:13.130Z,100837.55
2023-05-08T06:30:40.142Z,100835.45
2023-05-08T06:33:08.682Z,100831.35
2023-05-08T06:35:36.001Z,100834.33
2023-05-08T06:38:02.879Z,100830.64
2023-05-08T06:40:31.330Z,100829.56
2023-05-08T06:42:58.268Z,100837.95
2023-05-08T06:45:25.119Z,100836.08
2023-05-08T06:47:52.185Z,100836.14
2023-05-08T06:50:19.110Z,100840.97
2023-05-08T06:52:46.131Z,100843.71
2023-05-08T06:55:13.210Z,100842.92
2023-05-08T06:57:40.293Z,100849.09
2023-05-08T07:00:09.472Z,100845.08
2023-05-08T07:02:36.537Z,100844.08
2023-05-08T07:05:08.803Z,100846.56
2023-05-08T07:07:36.566Z,100846.94
2023-05-08T07:10:04.614Z,100848.91
2023-05-08T07:12:33.049Z,100856.52
2023-05-08T07:15:17.622Z,100847.20
2023-05-08T07:17:47.529Z,100846.38
2023-05-08T07:20:14.490Z,100845.73
2023-05-08T07:22:42.273Z,100846.02
2023-05-08T07:25:09.797Z,100844.10
2023-05-08T07:27:37.897Z,100843.64
2023-05-08T07:30:06.032Z,100844.20
2023-05-08T07:32:33.705Z,100848.90
2023-05-08T07:35:02.188Z,100839.65
2023-05-08T07:37:29.047Z,100842.70
2023-05-08T07:39:56.008Z,100840.21
2023-05-08T07:42:23.761Z,100840.05
2023-05-08T07:44:54.745Z,100839.71
2023-05-08T07:47:22.437Z,100834.55
2023-05-08T07:49:49.421Z,100837.48
2023-05-08T07:52:16.277Z,100837.36
2023-05-08T07:54:43.358Z,100838.14
2023-05-08T07:57:10.627Z,100836.81
2023-05-08T07:59:37.998Z,100835.05
2023-05-08T08:02:05.024Z,100829.19
2023-05-08T08:04:32.191Z,100827.61
2023-05-08T08:06:59.535Z,100823.33
2023-05-08T08:09:26.319Z,100827.45
2023-05-08T08:11:53.323Z,100826.48
2023-05-08T08:14:20.160Z,100823.45
2023-05-08T08:16:47.547Z,100826.02
2023-05-08T08:19:14.395Z,100827.66
2023-05-08T08:21:42.936Z,100820.43
2023-05-08T08:24:10.255Z,100822.10
2023-05-08T08:26:37.280Z,100821.27
2023-05-08T08:29:04.161Z,100821.25
2023-05-08T08:31:32.550Z,100825.63
2023-05-08T08:33:59.595Z,100826.19
2023-05-08T08:36:26.422Z,100823.71
2023-05-08T08:38:53.861Z,100820.41
2023-05-08T08:41:22.833Z,100818.61
2023-05-08T08:43:50.300Z,100821.14
2023-05-08T08:46:20.302Z,100822.18
2023-05-08T08:48:47.691Z,100818.23
2023-05-08T08:51:22.913Z,100821.41
2023-05-08T08:53:54.247Z,100818.15
2023-05-08T08:56:22.287Z,100812.52
2023-05-08T08:59:01.129Z,100805.02
2023-05-08T09:01:30.913Z,100800.77
2023-05-08T09:03:59.168Z,100793.73
2023-05-08T09:06:27.102Z,100794.20
2023-05-08T09:08:57.829Z,100792.45
2023-05-08T09:11:25.347Z,100786.63
2023-05-08T09:13:55.431Z,100787.45
2023-05-08T09:16:23.198Z,100779.00
2023-05-08T09:18:50.428Z,100776.23
2023-05-08T09:21:21.983Z,100774.20
2023-05-08T09:23:56.331Z,100772.69
2023-05-08T09:26:34.702Z,100769.42
2023-05-08T09:29:13.210Z,100769.48
2023-05-08T09:31:45.258Z,100766.61
2023-05-08T09:34:27.808Z,100765.52
2023-05-08T09:36:55.423Z,100769.86
2023-05-08T09:39:24.761Z,100762.99
2023-05-08T09:42:04.443Z,100763.36
2023-05-08T09:44:51.727Z,100759.76
2023-05-08T09:47:20.115Z,100757.31
2023-05-08T09:50:08.043Z,100749.10
2023-05-08T09:52:36.718Z,100749.71
2023-05-08T09:55:03.543Z,100746.22
2023-05-08T09:57:31.542Z,100742.92
2023-05-08T10:00:09.672Z,100745.05
2023-05-08T10:02:39.831Z,100742.87
2023-05-08T10:05:35.182Z,100743.73
2023-05-08T10:08:23.455Z,100740.14
2023-05-08T10:10:50.755Z,100739.99
2023-05-08T10:13:17.790Z,100738.73
2023-05-08T10:15:47.745Z,100739.50
2023-05-08T10:18:20.123Z,100747.03
2023-05-08T10:20:46.921Z,100743.42
2023-05-08T10:23:18.578Z,100739.17
2023-05-08T10:25:46.431Z,100736.02
2023-05-08T10:28:21.802Z,100735.58
2023-05-08T10:30:49.274Z,100735.25
2023-05-08T10:33:20.836Z,100736.68
2023-05-08T10:35:47.724Z,100742.39
2023-05-08T10:38:14.928Z,100741.36
2023-05-08T10:40:41.886Z,100740.90
2023-05-08T10:43:09.534Z,100742.61
2023-05-08T10:45:36.380Z,100747.90
2023-05-08T10:48:16.568Z,100751.45
2023-05-08T10:50:58.758Z,100752.22
2023-05-08T10:53:38.017Z,100749.02
2023-05-08T10:56:04.939Z,100744.40
2023-05-08T10:58:33.180Z,100742.14
2023-05-08T11:00:59.937Z,100739.14
2023-05-08T11:03:31.174Z,100745.35
2023-05-08T11:05:59.545Z,100741.09
2023-05-08T11:08:27.763Z,100746.56
2023-05-08T11:11:04.527Z,100750.91
2023-05-08T11:13:35.782Z,100744.90
2023-05-08T11:16:03.287Z,100741.15
2023-05-08T11:18:41.756Z,100738.44
2023-05-08T11:21:23.135Z,100743.38
2023-05-08T11:23:57.291Z,100742.33
2023-05-08T11:26:38.582Z,100743.27
2023-05-08T11:29:17.034Z,100749.34
2023-05-08T11:31:50.901Z,100748.34
2023-05-08T11:34:45.279Z,100746.69
2023-05-08T11:37:19.834Z,100747.41
2023-05-08T11:39:47.183Z,100745.73
2023-05-08T11:42:26.875Z,100750.66
2023-05-08T11:45:05.194Z,100751.96
2023-05-08T11:47:40.891Z,100755.14
2023-05-08T11:50:08.660Z,100759.15
2023-05-08T11:52:36.541Z,100763.33
2023-05-08T11:55:05.634Z,100757.27
2023-05-08T11:57:33.400Z,100757.36
2023-05-08T12:00:05.449Z,100758.80
2023-05-08T12:02:41.057Z,100758.63
2023-05-08T12:05:08.975Z,100755.27
2023-05-08T12:07:44.219Z,100752.43
2023-05-08T12:10:11.525Z,100742.82
2023-05-08T12:12:39.585Z,100737.24
2023-05-08T12:15:11.382Z,100736.25
2023-05-08T12:17:38.463Z,100733.55
2023-05-08T12:20:16.535Z,100738.55
2023-05-08T12:22:51.817Z,100744.20
2023-05-08T12:25:19.042Z,100742.67
2023-05-08T12:27:52.511Z,100744.60
2023-05-08T12:30:20.345Z,100741.63
2023-05-08T12:32:47.927Z,100743.90
2023-05-08T12:35:15.622Z,100742.95
2023-05-08T12:37:44.158Z,100741.23
2023-05-08T12:40:29.146Z,100741.94
2023-05-08T12:42:55.969Z,100742.14
2023-05-08T12:45:27.661Z,100742.42
2023-05-08T12:47:59.157Z,100747.05
2023-05-08T12:50:25.995Z,100746.92
2023-05-08T12:52:53.777Z,100749.21
2023-05-08T12:55:25.433Z,100756.55
2023-05-08T12:58:02.983Z,100755.09
2023-05-08T13:00:45.992Z,100757.56
2023-05-08T13:03:20.739Z,100754.36
2023-05-08T13:05:47.820Z,100756.67
2023-05-08T13:08:15.043Z,100757.64
2023-05-08T13:10:48.771Z,100757.77
2023-05-08T13:13:18.029Z,100757.46
2023-05-08T13:15:45.017Z,100762.41
2023-05-08T13:18:12.094Z,100763.95
2023-05-08T13:20:39.374Z,100764.52
2023-05-08T13:23:06.731Z,100765.42
2023-05-08T13:25:37.289Z,100767.50
2023-05-08T13:28:04.645Z,100765.52
2023-05-08T13:30:32.076Z,100764.34
2023-05-08T13:32:59.507Z,100766.52
2023-05-08T13:35:27.883Z,100762.22
2023-05-08T13:37:55.483Z,100759.23
2023-05-08T13:40:27.649Z,100756.11
2023-05-08T13:42:54.800Z,100752.98
2023-05-08T13:45:21.606Z,100755.36
2023-05-08T13:47:49.048Z,100751.27
2023-05-08T13:50:16.555Z,100755.13
2023-05-08T13:52:43.837Z,100757.49
2023-05-08T13:55:11.845Z,100762.27
2023-05-08T13:57:39.457Z,100763.87
2023-05-08T14:00:06.993Z,100769.04
2023-05-08T14:02:37.224Z,100770.44
2023-05-08T14:05:07.383Z,100769.86
2023-05-08T14:07:35.471Z,100772.30
2023-05-08T14:10:03.098Z,100777.80
2023-05-08T14:12:30.361Z,100774.86
2023-05-08T14:14:57.782Z,100777.60
2023-05-08T14:17:24.870Z,100776.48
2023-05-08T14:19:53.252Z,100779.91
2023-05-08T14:22:20.174Z,100785.52
2023-05-08T14:24:47.157Z,100784.98
2023-05-08T14:27:14.139Z,100784.02
2023-05-08T14:29:41.120Z,100783.27
2023-05-08T14:32:13.388Z,100788.36
2023-05-08T14:34:40.355Z,100786.37
2023-05-08T14:37:07.301Z,100787.64
2023-05-08T14:39:34.402Z,100782.54
2023-05-08T14:42:21.487Z,100783.88
2023-05-08T14:44:49.339Z,100780.85
2023-05-08T14:47:16.358Z,100782.15
2023-05-08T14:49:43.077Z,100777.14
2023-05-08T14:52:15.195Z,100774.33
2023-05-08T14:54:42.192Z,100770.48
2023-05-08T14:57:09.777Z,100770.27
2023-05-08T14:59:38.587Z,100770.20
2023-05-08T15:02:08.632Z,100766.81
2023-05-08T15:04:40.311Z,100762.67
2023-05-08T15:07:09.484Z,100765.58
2023-05-08T15:09:37.070Z,100771.79
2023-05-08T15:12:03.952Z,100775.41
2023-05-08T15:14:31.651Z,100778.68
2023-05-08T15:16:58.597Z,100782.90
2023-05-08T15:19:30.616Z,100780.23
2023-05-08T15:21:57.491Z,100781.33
2023-05-08T15:24:24.773Z,100778.27
2023-05-08T15:26:51.728Z,100784.94
2023-05-08T15:29:18.594Z,100779.11
2023-05-08T15:31:45.799Z,100775.66
2023-05-08T15:34:13.400Z,100778.34
2023-05-08T15:36:40.536Z,100782.63
2023-05-08T15:39:07.458Z,100782.98
2023-05-08T15:41:36.721Z,100783.70
2023-05-08T15:44:03.888Z,100786.27
2023-05-08T15:46:31.442Z,100791.27
2023-05-08T15:49:00.412Z,100789.27
2023-05-08T15:51:33.394Z,100797.00
2023-05-08T15:54:00.342Z,100794.84
2023-05-08T15:56:27.999Z,100799.75
2023-05-08T15:58:54.992Z,100802.23
2023-05-08T16:01:21.918Z,100799.32
2023-05-08T16:03:48.879Z,100803.63
2023-05-08T16:06:16.150Z,100802.88
2023-05-08T16:08:44.087Z,100807.12
2023-05-08T16:11:11.311Z,100812.55
2023-05-08T16:13:38.196Z,100813.23
2023-05-08T16:16:05.731Z,100812.41
2023-05-08T16:18:33.009Z,100819.64
2023-05-08T16:21:00.015Z,100821.80
2023-05-08T16:23:27.212Z,100827.92
2023-05-08T16:25:54.126Z,100831.40
2023-05-08T16:28:21.221Z,100828.25
2023-05-08T16:30:53.373Z,100828.02
2023-05-08T16:33:20.526Z,100825.73
2023-05-08T16:35:47.681Z,100830.71
2023-05-08T16:38:14.755Z,100828.94
2023-05-08T16:40:41.735Z,100834.27
2023-05-08T16:43:09.026Z,100839.70
2023-05-08T16:45:36.246Z,100843.16
2023-05-08T16:48:03.700Z,100840.84
2023-05-08T16:50:30.701Z,100843.73
2023-05-08T16:52:57.741Z,100847.28
2023-05-08T16:55:24.827Z,100849.57
2023-05-08T16:57:54.700Z,100854.39
2023-05-08T17:00:22.592Z,100859.80
2023-05-08T17:02:49.871Z,100866.42
2023-05-08T17:05:16.795Z,100868.98
2023-05-08T17:07:45.304Z,100872.54
2023-05-08T17:10:12.648Z,100875.91
2023-05-08T17:12:39.600Z,100877.75
2023-05-08T17:15:14.225Z,100882.61
2023-05-08T17:17:42.659Z,100883.52
2023-05-08T17:20:12.407Z,100886.23
2023-05-08T17:22:40.405Z,100889.95
2023-05-08T17:25:10.432Z,100894.33
2023-05-08T17:27:39.161Z,100900.59
2023-05-08T17:30:11.101Z,100901.23
2023-05-08T17:32:39.629Z,100902.40
2023-05-08T17:35:12.094Z,100904.84
2023-05-08T17:37:41.198Z,100909.04
2023-05-08T17:40:09.783Z,100908.70
2023-05-08T17:42:37.355Z,100915.30
2023-05-08T17:45:04.652Z,100916.17
2023-05-08T17:47:32.198Z,100925.53
2023-05-08T17:49:59.670Z,100932.98
2023-05-08T17:52:32.174Z,100940.40
2023-05-08T17:54:59.057Z,100943.97
2023-05-08T17:57:26.187Z,100948.13
2023-05-08T17:59:53.557Z,100954.35
2023-05-08T18:02:20.814Z,100956.95
2023-05-08T18:04:49.193Z,100956.14
2023-05-08T18:07:16.377Z,100960.43
2023-05-08T18:09:43.961Z,100960.48
2023-05-08T18:12:11.198Z,100959.05
2023-05-08T18:14:39.042Z,100967.20
2023-05-08T18:17:06.977Z,100967.16
2023-05-08T18:19:34.136Z,100967.57
2023-05-08T18:22:00.981Z,100971.48
2023-05-08T18:24:28.740Z,100969.29
2023-05-08T18:26:55.720Z,100970.84
2023-05-08T18:29:23.151Z,100971.38
2023-05-08T18:32:00.365Z,100971.61
2023-05-08T18:34:27.514Z,100972.13
2023-05-08T18:37:00.166Z,100968.52
2023-05-08T18:39:27.187Z,100967.15
2023-05-08T18:41:54.046Z,100968.09
2023-05-08T18:44:20.901Z,100970.05
2023-05-08T18:46:47.939Z,100968.59
2023-05-08T18:49:15.482Z,100968.96
2023-05-08T18:51:42.919Z,100966.72
2023-05-08T18:54:09.913Z,100973.13
2023-05-08T18:56:37.257Z,100972.36
2023-05-08T18:59:04.820Z,100967.79
2023-05-08T19:01:32.494Z,100968.83
2023-05-08T19:03:59.941Z,100974.23
2023-05-08T19:06:26.753Z,100969.96
2023-05-08T19:08:53.721Z,100969.23
2023-05-08T19:11:21.333Z,100971.33
2023-05-08T19:13:51.354Z,100972.73
2023-05-08T19:16:18.482Z,100972.44
2023-05-08T19:18:46.998Z,100979.52
2023-05-08T19:21:14.196Z,100979.94
2023-05-08T19:23:46.437Z,100975.71
2023-05-08T19:26:13.337Z,100972.70
2023-05-08T19:28:40.215Z,100970.02
2023-05-08T19:31:07.094Z,100973.23
2023-05-08T19:33:34.914Z,100971.32
2023-05-08T19:36:01.859Z,100975.04
2023-05-08T19:38:29.734Z,100969.65
2023-05-08T19:40:58.033Z,100968.64
2023-05-08T19:43:26.430Z,100973.50
2023-05-08T19:45:54.919Z,100970.14
2023-05-08T19:48:22.318Z,100970.45
2023-05-08T19:50:49.632Z,100972.67
2023-05-08T19:53:17.252Z,100971.60
2023-05-08T19:55:44.088Z,100974.33
2023-05-08T19:58:11.659Z,100976.77
2023-05-08T20:00:39.561Z,100976.71
2023-05-08T20:03:06.510Z,100978.41
2023-05-08T20:05:35.186Z,100974.89
2023-05-08T20:08:02.222Z,100974.45
2023-05-08T20:10:29.360Z,100972.71
2023-05-08T20:12:56.740Z,100976.37
2023-05-08T20:15:23.912Z,100974.55
2023-05-08T20:17:50.835Z,100977.92
2023-05-08T20:20:17.883Z,100976.36
2023-05-08T20:22:45.019Z,100978.28
2023-05-08T20:25:13.276Z,100980.45
2023-05-08T20:27:40.462Z,100981.89
2023-05-08T20:30:08.054Z,100978.39
2023-05-08T20:32:35.987Z,100979.81
2023-05-08T20:35:03.005Z,100979.20
2023-05-08T20:37:30.659Z,100975.04
2023-05-08T20:39:57.846Z,100970.95
2023-05-08T20:42:24.836Z,100971.34
2023-05-08T20:44:51.779Z,100968.16
2023-05-08T20:47:19.273Z,100966.85
2023-05-08T20:49:46.291Z,100966.02
2023-05-08T20:52:13.831Z,100963.45
2023-05-08T20:54:43.953Z,100960.61
2023-05-08T20:57:12.698Z,100960.48
2023-05-08T20:59:40.408Z,100957.77
2023-05-08T21:02:07.520Z,100957.08
2023-05-08T21:04:35.249Z,100956.84
2023-05-08T21:07:03.132Z,100954.80
2023-05-08T21:09:30.389Z,100956.89
2023-05-08T21:11:57.792Z,100957.13
2023-05-08T21:14:24.884Z,100954.48
2023-05-08T21:16:53.261Z,100957.83
2023-05-08T21:19:20.404Z,100958.74
2023-05-08T21:21:47.370Z,100954.08
2023-05-08T21:24:14.844Z,100954.05
2023-05-08T21:26:41.827Z,100956.09
2023-05-08T21:29:10.461Z,100953.45
2023-05-08T21:31:37.287Z,100947.09
2023-05-08T21:34:09.317Z,100952.13
2023-05-08T21:36:41.540Z,100947.50
2023-05-08T21:39:09.033Z,100945.89
2023-05-08T21:41:36.231Z,100948.14
2023-05-08T21:44:03.209Z,100947.84
2023-05-08T21:46:31.498Z,100947.04
2023-05-08T21:48:58.479Z,100943.52
2023-05-08T21:51:26.102Z,100937.36
2023-05-08T21:53:52.860Z,100938.51
2023-05-08T21:56:20.832Z,100938.31
2023-05-08T21:58:48.867Z,100936.30
2023-05-08T22:01:16.720Z,100936.34
2023-05-08T22:03:44.092Z,100936.73
2023-05-08T22:06:11.282Z,100933.01
2023-05-08T22:08:38.468Z,100933.80
2023-05-08T22:11:05.548Z,100932.30
2023-05-08T22:13:33.166Z,100929.50
2023-05-08T22:16:00.023Z,100930.46
2023-05-08T22:18:26.884Z,100929.88
2023-05-08T22:20:54.524Z,100926.90
2023-05-08T22:23:21.364Z,100925.61
2023-05-08T22:25:48.438Z,100919.75
2023-05-08T22:28:16.087Z,100921.46
2023-05-08T22:30:43.132Z,100924.00
2023-05-08T22:33:10.098Z,100926.19
2023-05-08T22:35:37.051Z,100922.19
2023-05-08T22:38:03.862Z,100922.05
2023-05-08T22:40:31.064Z,100920.00
2023-05-08T22:42:58.509Z,100914.19
2023-05-08T22:45:26.494Z,100913.83
2023-05-08T22:47:53.666Z,100909.95
2023-05-08T22:50:25.681Z,100907.89
2023-05-08T22:52:53.137Z,100905.68
2023-05-08T22:55:20.058Z,100904.59
2023-05-08T22:57:47.163Z,100898.45
2023-05-08T23:00:19.456Z,100903.27
2023-05-08T23:02:46.994Z,100898.43
2023-05-08T23:05:14.843Z,100898.39
2023-05-08T23:07:41.904Z,100897.05
2023-05-08T23:10:09.177Z,100893.63
2023-05-08T23:12:36.513Z,100897.02
2023-05-08T23:15:04.165Z,100892.28
2023-05-08T23:17:31.689Z,100890.41
2023-05-08T23:19:58.657Z,100886.36
2023-05-08T23:22:25.879Z,100885.52
2023-05-08T23:24:57.997Z,100888.90
2023-05-08T23:27:33.547Z,100889.23
2023-05-08T23:30:06.538Z,100887.36
2023-05-08T23:32:34.126Z,100889.15
2023-05-08T23:35:00.929Z,100887.63
2023-05-08T23:37:27.839Z,100886.97
2023-05-08T23:39:54.951Z,100880.48
2023-05-08T23:42:21.828Z,100880.54
2023-05-08T23:44:49.022Z,100882.36
2023-05-08T23:47:18.356Z,100883.95
2023-05-08T23:49:45.942Z,100882.22
2023-05-08T23:52:13.397Z,100886.95
2023-05-08T23:54:40.664Z,100886.15
2023-05-08T23:57:08.111Z,100884.06
2023-05-08T23:59:36.134Z,100884.25
